Dean Reinauer — WDG7107 — position and weather

sailwx.info

Track history (hours):
 
Tides and Currents Weather Stations Pressure Air Temp Water Temp Dewpoint Dewpoint Depression Visibility Wind Speed Wind Dir Waves Ship Positions

Dean Reinauer

Owner: REINAUER TRANSPORTATION CO.,LLC., STATEN ISLAND, NY. More information available from US FCC via Universal Licensing System and Coast Guard Vessel Documentation Center.

Last reported at 2017-Dec-11 16:52 UTC. Time now 2017-Dec-14 02:32 UTC.
Position N 42°21' W 071°02'.

Length 152 m; draft 6.7 m.

Type: . MMSI: 367563930.

Date/timePositionNaut miles runAvg speedWind from/ knotsBaromVisibWave heightAir tempDewpointWater temp
2017-Dec-11 16:52N 42°21' W 071°02'0 0.0
2017-Dec-11 16:10N 42°21' W 071°02'0 0.1
2017-Dec-11 15:58N 42°21' W 071°02'0 0.0
2017-Dec-11 15:28N 42°21' W 071°02'0 0.0
2017-Dec-11 14:52N 42°21' W 071°02'0 0.0
2017-Dec-11 14:22N 42°21' W 071°02'0 0.0
2017-Dec-11 13:55N 42°21' W 071°02'0 0.0
2017-Dec-11 13:25N 42°21' W 071°02'0 0.0
2017-Dec-11 12:58N 42°21' W 071°02'0 0.0
2017-Dec-11 12:28N 42°22' W 071°02'0 0.0
2017-Dec-11 11:55N 42°22' W 071°02'0 0.0
2017-Dec-11 11:28N 42°21' W 071°02'0 0.1
2017-Dec-11 10:55N 42°22' W 071°02'0 0.0
2017-Dec-11 10:25N 42°22' W 071°02'0 0.0
2017-Dec-11 09:58N 42°22' W 071°02'0 0.2
2017-Dec-11 09:25N 42°21' W 071°02'0 0.1
2017-Dec-11 09:00N 42°21' W 071°02'3 5.6
2017-Dec-11 08:31N 42°20' W 070°59'5 9.3
2017-Dec-11 08:01N 42°23' W 070°54'4 8.6
2017-Dec-11 07:30N 42°21' W 070°48'5 9.6
2017-Dec-11 07:00N 42°18' W 070°43'5 9.4
2017-Dec-11 06:30N 42°15' W 070°38'5 9.5
2017-Dec-11 06:00N 42°11' W 070°34'5 9.1
2017-Dec-11 05:30N 42°07' W 070°32'89 7.0
2017-Dec-10 16:41N 41°14' W 072°07'1 6.5
2017-Dec-10 16:29N 41°13' W 072°09'4 7.5
2017-Dec-10 16:00N 41°13' W 072°14'4 8.0
2017-Dec-10 15:30N 41°11' W 072°19'5 9.9
2017-Dec-10 15:00N 41°10' W 072°25'510.5
2017-Dec-10 14:30N 41°08' W 072°32'510.3
2017-Dec-10 14:00N 41°07' W 072°38'48 9.6
2017-Dec-10 08:58N 40°54' W 073°40'4 8.9
2017-Dec-10 08:30N 40°52' W 073°45'4 8.6
2017-Dec-10 08:00N 40°48' W 073°47'5 9.3
2017-Dec-10 07:30N 40°48' W 073°53'4 9.0
2017-Dec-10 07:00N 40°45' W 073°58'5 9.1
2017-Dec-10 06:30N 40°41' W 074°01'4 7.8
2017-Dec-10 06:01N 40°39' W 074°05'0 0.1
2017-Dec-10 05:28N 40°39' W 074°05'0 0.0
2017-Dec-10 04:58N 40°39' W 074°05'0 0.0
2017-Dec-10 04:28N 40°39' W 074°05'0 0.0
2017-Dec-10 03:58N 40°39' W 074°05'0 0.0
2017-Dec-10 03:28N 40°39' W 074°05'0 0.0
2017-Dec-10 02:58N 40°39' W 074°05'0 0.0
2017-Dec-10 02:28N 40°39' W 074°05'0 0.0
2017-Dec-10 01:58N 40°39' W 074°05'0 0.0
2017-Dec-10 01:28N 40°39' W 074°05'0 0.0
2017-Dec-10 00:58N 40°39' W 074°05'0 0.0
2017-Dec-10 00:28N 40°39' W 074°05'0 0.0
2017-Dec-09 23:58N 40°39' W 074°05'0 0.0
2017-Dec-09 23:28N 40°39' W 074°05'0 0.0
2017-Dec-09 22:58N 40°39' W 074°05'0 0.0
2017-Dec-09 22:28N 40°39' W 074°05'0 0.0
2017-Dec-09 21:58N 40°39' W 074°05'0 0.0
2017-Dec-09 21:28N 40°39' W 074°05'0 0.0
2017-Dec-09 20:58N 40°39' W 074°05'0 0.0
2017-Dec-09 20:28N 40°39' W 074°05'0 0.0
2017-Dec-09 19:58N 40°39' W 074°05'0 0.0
2017-Dec-09 19:28N 40°39' W 074°05'0 0.0
2017-Dec-09 18:58N 40°39' W 074°05'0 0.0
2017-Dec-09 18:28N 40°39' W 074°05'0 0.0
2017-Dec-09 17:58N 40°39' W 074°05'0 0.0
2017-Dec-09 17:28N 40°39' W 074°05'0 0.0
2017-Dec-09 17:00N 40°39' W 074°05'0 0.0
2017-Dec-09 16:30N 40°39' W 074°05'0 0.0
2017-Dec-09 16:00N 40°39' W 074°05'0 0.0
2017-Dec-09 15:30N 40°39' W 074°05'0 0.0
2017-Dec-09 15:00N 40°39' W 074°05'0 0.0
2017-Dec-09 14:30N 40°39' W 074°05'0 0.0
2017-Dec-09 14:00N 40°39' W 074°05'0 0.0
2017-Dec-09 13:30N 40°39' W 074°05'0 0.0
2017-Dec-09 13:00N 40°39' W 074°05'0 0.0
2017-Dec-09 12:30N 40°39' W 074°05'0 0.0
2017-Dec-09 12:00N 40°39' W 074°05'0 0.0
2017-Dec-09 11:30N 40°39' W 074°05'0 0.0
2017-Dec-09 11:00N 40°39' W 074°05'0 0.0
2017-Dec-09 10:30N 40°39' W 074°05'0 0.0
2017-Dec-09 10:00N 40°39' W 074°05'0 0.0
2017-Dec-09 09:30N 40°39' W 074°05'0 0.0
2017-Dec-09 09:00N 40°39' W 074°05'0 0.0
2017-Dec-09 08:30N 40°39' W 074°05'0 0.0
2017-Dec-09 08:00N 40°39' W 074°05'0 0.0
2017-Dec-09 07:30N 40°39' W 074°05'0 0.0
2017-Dec-09 07:00N 40°39' W 074°05'0 0.0
2017-Dec-09 06:30N 40°39' W 074°05'0 0.0
2017-Dec-09 06:00N 40°39' W 074°05'0 0.0
2017-Dec-09 05:30N 40°39' W 074°05'0 0.0
2017-Dec-09 05:00N 40°39' W 074°05'2 4.2
2017-Dec-09 04:30N 40°38' W 074°08'0 0.0
2017-Dec-09 04:00N 40°38' W 074°08'0 0.0
2017-Dec-09 03:29N 40°38' W 074°08'0 0.0
2017-Dec-09 03:00N 40°38' W 074°08'0 0.0
2017-Dec-09 02:30N 40°38' W 074°08'0 0.0
2017-Dec-09 02:00N 40°38' W 074°08'0 0.0
2017-Dec-09 01:30N 40°38' W 074°08'0 0.3
2017-Dec-09 01:00N 40°39' W 074°08'2 4.1
2017-Dec-09 00:30N 40°39' W 074°05'0 0.7
2017-Dec-09 00:00N 40°39' W 074°05'4 8.2
2017-Dec-08 23:30N 40°36' W 074°01'0 0.2
2017-Dec-08 22:59N 40°36' W 074°01'0 0.0
2017-Dec-08 22:29N 40°36' W 074°01'0 0.0
2017-Dec-08 21:47N 40°36' W 074°01'0 0.0
2017-Dec-08 21:26N 40°36' W 074°01'0 0.0
2017-Dec-08 20:59N 40°36' W 074°01'0 0.0
2017-Dec-08 20:29N 40°36' W 074°01'0 0.0
2017-Dec-08 19:53N 40°36' W 074°01'0 0.1
2017-Dec-08 19:26N 40°36' W 074°01'0 0.0
2017-Dec-08 18:59N 40°36' W 074°01'0 1.1
2017-Dec-08 18:30N 40°35' W 074°02'4 8.4
2017-Dec-08 18:00N 40°40' W 074°01'4 7.4
2017-Dec-08 17:30N 40°43' W 073°58'4 7.0
2017-Dec-08 16:59N 40°46' W 073°57'3 5.6
2017-Dec-08 16:30N 40°48' W 073°54'4 7.1
2017-Dec-08 16:00N 40°48' W 073°50'3 6.6
2017-Dec-08 15:29N 40°50' W 073°46'5 9.3
2017-Dec-08 14:57N 40°54' W 073°42'41 9.3
2017-Dec-08 10:30N 41°05' W 072°49'4 9.0
2017-Dec-08 10:00N 41°06' W 072°43'4 8.8
2017-Dec-08 09:30N 41°07' W 072°37'4 8.6
2017-Dec-08 09:00N 41°09' W 072°32'4 8.6
2017-Dec-08 08:30N 41°10' W 072°27'4 8.8
2017-Dec-08 08:00N 41°11' W 072°21'5 9.2
2017-Dec-08 07:30N 41°13' W 072°15'610.1
2017-Dec-08 06:56N 41°14' W 072°08'38 8.6
2017-Dec-08 02:27N 41°30' W 071°21'4 9.0
2017-Dec-08 02:00N 41°34' W 071°19'4 8.8
2017-Dec-08 01:30N 41°38' W 071°18'5 9.4
2017-Dec-08 01:00N 41°42' W 071°20'4 8.7
2017-Dec-08 00:30N 41°46' W 071°22'2 1.8
2017-Dec-07 23:35N 41°48' W 071°23'0 0.0
2017-Dec-07 19:23N 41°48' W 071°23'0 0.0
2017-Dec-07 17:53N 41°48' W 071°23'0 0.0
2017-Dec-07 16:26N 41°48' W 071°23'0 0.0
2017-Dec-07 15:44N 41°48' W 071°23'0 0.0
2017-Dec-07 15:08N 41°48' W 071°23'0 0.0
2017-Dec-07 14:56N 41°48' W 071°23'0 0.0
2017-Dec-07 14:26N 41°48' W 071°23'0 0.0
2017-Dec-07 13:57N 41°48' W 071°23'0 0.0
2017-Dec-07 13:27N 41°48' W 071°23'0 0.0
2017-Dec-07 12:57N 41°48' W 071°23'0 0.0
2017-Dec-07 12:26N 41°48' W 071°23'0 0.0
2017-Dec-07 11:57N 41°48' W 071°23'0 0.0
2017-Dec-07 11:27N 41°48' W 071°23'0 0.0
2017-Dec-07 10:51N 41°48' W 071°23'0 0.0
2017-Dec-07 10:26N 41°48' W 071°23'0 0.0
2017-Dec-07 07:56N 41°48' W 071°23'0 0.0
2017-Dec-07 05:21N 41°48' W 071°23'0 0.0
2017-Dec-07 04:51N 41°48' W 071°23'0 0.0
2017-Dec-07 04:21N 41°48' W 071°23'0 0.0
2017-Dec-07 03:50N 41°48' W 071°23'0 0.0
2017-Dec-07 03:27N 41°48' W 071°23'0 0.0
2017-Dec-07 02:57N 41°48' W 071°23'0 0.0
2017-Dec-07 02:21N 41°48' W 071°23'0 0.0
2017-Dec-07 01:50N 41°48' W 071°23'1 2.0
2017-Dec-07 01:30N 41°47' W 071°23'2 3.1
2017-Dec-07 01:00N 41°46' W 071°23'5 9.3
2017-Dec-07 00:30N 41°42' W 071°19'  
2017-Dec-02 23:47N 41°01' W 073°53'310.5
2017-Dec-02 23:30N 40°58' W 073°54'510.1
2017-Dec-02 23:00N 40°53' W 073°56'510.1
2017-Dec-02 22:30N 40°48' W 073°59'5 9.5
2017-Dec-02 22:00N 40°44' W 074°01'5 9.3
2017-Dec-02 21:30N 40°39' W 074°03'3 6.6
2017-Dec-02 21:00N 40°39' W 074°07'3 6.1
2017-Dec-02 20:30N 40°39' W 074°11'1 2.5
2017-Dec-02 20:00N 40°38' W 074°12'0 0.0
2017-Dec-02 19:30N 40°38' W 074°12'0 0.0
2017-Dec-02 19:00N 40°38' W 074°12'0 0.0
2017-Dec-02 18:28N 40°38' W 074°12'0 0.0
2017-Dec-02 17:58N 40°38' W 074°12'0 0.0
2017-Dec-02 17:28N 40°38' W 074°12'0 0.0
2017-Dec-02 16:55N 40°38' W 074°12'0 0.0
2017-Dec-02 16:28N 40°38' W 074°12'0 0.0
2017-Dec-02 15:49N 40°38' W 074°12'0 0.0
2017-Dec-02 15:28N 40°38' W 074°12'0 0.0
2017-Dec-02 14:58N 40°38' W 074°12'0 0.0
2017-Dec-02 14:25N 40°38' W 074°12'0 0.0
2017-Dec-02 13:55N 40°38' W 074°12'0 0.0
2017-Dec-02 13:22N 40°38' W 074°12'0 0.0
2017-Dec-02 12:58N 40°38' W 074°12'0 0.0
2017-Dec-02 12:22N 40°38' W 074°12'0 0.0
2017-Dec-02 11:58N 40°38' W 074°12'0 0.0
2017-Dec-02 11:28N 40°38' W 074°12'0 0.0
2017-Dec-02 10:58N 40°38' W 074°12'0 0.0
2017-Dec-02 10:28N 40°38' W 074°12'0 0.0
2017-Dec-02 09:58N 40°38' W 074°12'0 0.0
2017-Dec-02 09:19N 40°38' W 074°12'0 0.0
2017-Dec-02 08:58N 40°38' W 074°12'0 0.0
2017-Dec-02 08:28N 40°38' W 074°12'0 0.0
2017-Dec-02 07:55N 40°38' W 074°12'0 0.0
2017-Dec-02 07:28N 40°38' W 074°12'0 0.0
2017-Dec-02 06:52N 40°38' W 074°12'0 0.0
2017-Dec-02 06:28N 40°38' W 074°12'0 0.0
2017-Dec-02 05:58N 40°38' W 074°12'0 0.0
2017-Dec-02 05:22N 40°38' W 074°12'0 0.0
2017-Dec-02 04:52N 40°38' W 074°12'0 0.0
2017-Dec-02 04:16N 40°38' W 074°12'0 0.0
2017-Dec-02 03:58N 40°38' W 074°12'0 0.0
2017-Dec-02 03:28N 40°38' W 074°12'0 0.0
2017-Dec-02 02:55N 40°38' W 074°12'0 0.0
2017-Dec-02 02:28N 40°38' W 074°12'0 0.0
2017-Dec-02 01:58N 40°38' W 074°12'0 0.0
2017-Dec-02 01:19N 40°38' W 074°12'0 0.0
2017-Dec-02 00:37N 40°38' W 074°12'0 0.0
2017-Dec-02 00:28N 40°38' W 074°12'0 0.0
2017-Dec-01 23:58N 40°38' W 074°12'0 0.0
2017-Dec-01 23:28N 40°38' W 074°12'0 0.0
2017-Dec-01 22:34N 40°38' W 074°12'0 0.0
2017-Dec-01 22:22N 40°38' W 074°12'0 0.0
2017-Dec-01 21:52N 40°38' W 074°12'0 0.0
2017-Dec-01 21:13N 40°38' W 074°12'0 0.0
2017-Dec-01 20:34N 40°38' W 074°12'0 0.0
2017-Dec-01 20:16N 40°38' W 074°12'0 0.0
2017-Dec-01 19:55N 40°38' W 074°12'0 0.0
2017-Dec-01 19:25N 40°38' W 074°12'0 0.0
2017-Dec-01 18:58N 40°38' W 074°12'0 0.0
2017-Dec-01 18:16N 40°38' W 074°12'0 0.0
2017-Dec-01 17:55N 40°38' W 074°12'0 0.0
2017-Dec-01 17:28N 40°38' W 074°12'0 0.0
2017-Dec-01 16:58N 40°38' W 074°12'  
Track history (hours):
 
Tides and Currents Weather Stations Pressure Air Temp Water Temp Dewpoint Dewpoint Depression Visibility Wind Speed Wind Dir Waves Ship Positions

Dean Reinauer

Owner: REINAUER TRANSPORTATION CO.,LLC., STATEN ISLAND, NY. More information available from US FCC via Universal Licensing System and Coast Guard Vessel Documentation Center.

Last reported at 2017-Dec-11 16:52 UTC. Time now 2017-Dec-14 02:32 UTC.
Position N 42°21' W 071°02'.

Length 152 m; draft 6.7 m.

Type: . MMSI: 367563930.

Date/timePositionNaut miles runAvg speedWind from/ knotsBaromVisibWave heightAir tempDewpointWater temp
2017-Dec-11 16:52N 42°21' W 071°02'0 0.0
2017-Dec-11 16:10N 42°21' W 071°02'0 0.1
2017-Dec-11 15:58N 42°21' W 071°02'0 0.0
2017-Dec-11 15:28N 42°21' W 071°02'0 0.0
2017-Dec-11 14:52N 42°21' W 071°02'0 0.0
2017-Dec-11 14:22N 42°21' W 071°02'0 0.0
2017-Dec-11 13:55N 42°21' W 071°02'0 0.0
2017-Dec-11 13:25N 42°21' W 071°02'0 0.0
2017-Dec-11 12:58N 42°21' W 071°02'0 0.0
2017-Dec-11 12:28N 42°22' W 071°02'0 0.0
2017-Dec-11 11:55N 42°22' W 071°02'0 0.0
2017-Dec-11 11:28N 42°21' W 071°02'0 0.1
2017-Dec-11 10:55N 42°22' W 071°02'0 0.0
2017-Dec-11 10:25N 42°22' W 071°02'0 0.0
2017-Dec-11 09:58N 42°22' W 071°02'0 0.2
2017-Dec-11 09:25N 42°21' W 071°02'0 0.1
2017-Dec-11 09:00N 42°21' W 071°02'3 5.6
2017-Dec-11 08:31N 42°20' W 070°59'5 9.3
2017-Dec-11 08:01N 42°23' W 070°54'4 8.6
2017-Dec-11 07:30N 42°21' W 070°48'5 9.6
2017-Dec-11 07:00N 42°18' W 070°43'5 9.4
2017-Dec-11 06:30N 42°15' W 070°38'5 9.5
2017-Dec-11 06:00N 42°11' W 070°34'5 9.1
2017-Dec-11 05:30N 42°07' W 070°32'89 7.0
2017-Dec-10 16:41N 41°14' W 072°07'1 6.5
2017-Dec-10 16:29N 41°13' W 072°09'4 7.5
2017-Dec-10 16:00N 41°13' W 072°14'4 8.0
2017-Dec-10 15:30N 41°11' W 072°19'5 9.9
2017-Dec-10 15:00N 41°10' W 072°25'510.5
2017-Dec-10 14:30N 41°08' W 072°32'510.3
2017-Dec-10 14:00N 41°07' W 072°38'48 9.6
2017-Dec-10 08:58N 40°54' W 073°40'4 8.9
2017-Dec-10 08:30N 40°52' W 073°45'4 8.6
2017-Dec-10 08:00N 40°48' W 073°47'5 9.3
2017-Dec-10 07:30N 40°48' W 073°53'4 9.0
2017-Dec-10 07:00N 40°45' W 073°58'5 9.1
2017-Dec-10 06:30N 40°41' W 074°01'4 7.8
2017-Dec-10 06:01N 40°39' W 074°05'0 0.1
2017-Dec-10 05:28N 40°39' W 074°05'0 0.0
2017-Dec-10 04:58N 40°39' W 074°05'0 0.0
2017-Dec-10 04:28N 40°39' W 074°05'0 0.0
2017-Dec-10 03:58N 40°39' W 074°05'0 0.0
2017-Dec-10 03:28N 40°39' W 074°05'0 0.0
2017-Dec-10 02:58N 40°39' W 074°05'0 0.0
2017-Dec-10 02:28N 40°39' W 074°05'0 0.0
2017-Dec-10 01:58N 40°39' W 074°05'0 0.0
2017-Dec-10 01:28N 40°39' W 074°05'0 0.0
2017-Dec-10 00:58N 40°39' W 074°05'0 0.0
2017-Dec-10 00:28N 40°39' W 074°05'0 0.0
2017-Dec-09 23:58N 40°39' W 074°05'0 0.0
2017-Dec-09 23:28N 40°39' W 074°05'0 0.0
2017-Dec-09 22:58N 40°39' W 074°05'0 0.0
2017-Dec-09 22:28N 40°39' W 074°05'0 0.0
2017-Dec-09 21:58N 40°39' W 074°05'0 0.0
2017-Dec-09 21:28N 40°39' W 074°05'0 0.0
2017-Dec-09 20:58N 40°39' W 074°05'0 0.0
2017-Dec-09 20:28N 40°39' W 074°05'0 0.0
2017-Dec-09 19:58N 40°39' W 074°05'0 0.0
2017-Dec-09 19:28N 40°39' W 074°05'0 0.0
2017-Dec-09 18:58N 40°39' W 074°05'0 0.0
2017-Dec-09 18:28N 40°39' W 074°05'0 0.0
2017-Dec-09 17:58N 40°39' W 074°05'0 0.0
2017-Dec-09 17:28N 40°39' W 074°05'0 0.0
2017-Dec-09 17:00N 40°39' W 074°05'0 0.0
2017-Dec-09 16:30N 40°39' W 074°05'0 0.0
2017-Dec-09 16:00N 40°39' W 074°05'0 0.0
2017-Dec-09 15:30N 40°39' W 074°05'0 0.0
2017-Dec-09 15:00N 40°39' W 074°05'0 0.0
2017-Dec-09 14:30N 40°39' W 074°05'0 0.0
2017-Dec-09 14:00N 40°39' W 074°05'0 0.0
2017-Dec-09 13:30N 40°39' W 074°05'0 0.0
2017-Dec-09 13:00N 40°39' W 074°05'0 0.0
2017-Dec-09 12:30N 40°39' W 074°05'0 0.0
2017-Dec-09 12:00N 40°39' W 074°05'0 0.0
2017-Dec-09 11:30N 40°39' W 074°05'0 0.0
2017-Dec-09 11:00N 40°39' W 074°05'0 0.0
2017-Dec-09 10:30N 40°39' W 074°05'0 0.0
2017-Dec-09 10:00N 40°39' W 074°05'0 0.0
2017-Dec-09 09:30N 40°39' W 074°05'0 0.0
2017-Dec-09 09:00N 40°39' W 074°05'0 0.0
2017-Dec-09 08:30N 40°39' W 074°05'0 0.0
2017-Dec-09 08:00N 40°39' W 074°05'0 0.0
2017-Dec-09 07:30N 40°39' W 074°05'0 0.0
2017-Dec-09 07:00N 40°39' W 074°05'0 0.0
2017-Dec-09 06:30N 40°39' W 074°05'0 0.0
2017-Dec-09 06:00N 40°39' W 074°05'0 0.0
2017-Dec-09 05:30N 40°39' W 074°05'0 0.0
2017-Dec-09 05:00N 40°39' W 074°05'2 4.2
2017-Dec-09 04:30N 40°38' W 074°08'0 0.0
2017-Dec-09 04:00N 40°38' W 074°08'0 0.0
2017-Dec-09 03:29N 40°38' W 074°08'0 0.0
2017-Dec-09 03:00N 40°38' W 074°08'0 0.0
2017-Dec-09 02:30N 40°38' W 074°08'0 0.0
2017-Dec-09 02:00N 40°38' W 074°08'0 0.0
2017-Dec-09 01:30N 40°38' W 074°08'0 0.3
2017-Dec-09 01:00N 40°39' W 074°08'2 4.1
2017-Dec-09 00:30N 40°39' W 074°05'0 0.7
2017-Dec-09 00:00N 40°39' W 074°05'4 8.2
2017-Dec-08 23:30N 40°36' W 074°01'0 0.2
2017-Dec-08 22:59N 40°36' W 074°01'0 0.0
2017-Dec-08 22:29N 40°36' W 074°01'0 0.0
2017-Dec-08 21:47N 40°36' W 074°01'0 0.0
2017-Dec-08 21:26N 40°36' W 074°01'0 0.0
2017-Dec-08 20:59N 40°36' W 074°01'0 0.0
2017-Dec-08 20:29N 40°36' W 074°01'0 0.0
2017-Dec-08 19:53N 40°36' W 074°01'0 0.1
2017-Dec-08 19:26N 40°36' W 074°01'0 0.0
2017-Dec-08 18:59N 40°36' W 074°01'0 1.1
2017-Dec-08 18:30N 40°35' W 074°02'4 8.4
2017-Dec-08 18:00N 40°40' W 074°01'4 7.4
2017-Dec-08 17:30N 40°43' W 073°58'4 7.0
2017-Dec-08 16:59N 40°46' W 073°57'3 5.6
2017-Dec-08 16:30N 40°48' W 073°54'4 7.1
2017-Dec-08 16:00N 40°48' W 073°50'3 6.6
2017-Dec-08 15:29N 40°50' W 073°46'5 9.3
2017-Dec-08 14:57N 40°54' W 073°42'41 9.3
2017-Dec-08 10:30N 41°05' W 072°49'4 9.0
2017-Dec-08 10:00N 41°06' W 072°43'4 8.8
2017-Dec-08 09:30N 41°07' W 072°37'4 8.6
2017-Dec-08 09:00N 41°09' W 072°32'4 8.6
2017-Dec-08 08:30N 41°10' W 072°27'4 8.8
2017-Dec-08 08:00N 41°11' W 072°21'5 9.2
2017-Dec-08 07:30N 41°13' W 072°15'610.1
2017-Dec-08 06:56N 41°14' W 072°08'38 8.6
2017-Dec-08 02:27N 41°30' W 071°21'4 9.0
2017-Dec-08 02:00N 41°34' W 071°19'4 8.8
2017-Dec-08 01:30N 41°38' W 071°18'5 9.4
2017-Dec-08 01:00N 41°42' W 071°20'4 8.7
2017-Dec-08 00:30N 41°46' W 071°22'2 1.8
2017-Dec-07 23:35N 41°48' W 071°23'0 0.0
2017-Dec-07 19:23N 41°48' W 071°23'0 0.0
2017-Dec-07 17:53N 41°48' W 071°23'0 0.0
2017-Dec-07 16:26N 41°48' W 071°23'0 0.0
2017-Dec-07 15:44N 41°48' W 071°23'0 0.0
2017-Dec-07 15:08N 41°48' W 071°23'0 0.0
2017-Dec-07 14:56N 41°48' W 071°23'0 0.0
2017-Dec-07 14:26N 41°48' W 071°23'0 0.0
2017-Dec-07 13:57N 41°48' W 071°23'0 0.0
2017-Dec-07 13:27N 41°48' W 071°23'0 0.0
2017-Dec-07 12:57N 41°48' W 071°23'0 0.0
2017-Dec-07 12:26N 41°48' W 071°23'0 0.0
2017-Dec-07 11:57N 41°48' W 071°23'0 0.0
2017-Dec-07 11:27N 41°48' W 071°23'0 0.0
2017-Dec-07 10:51N 41°48' W 071°23'0 0.0
2017-Dec-07 10:26N 41°48' W 071°23'0 0.0
2017-Dec-07 07:56N 41°48' W 071°23'0 0.0
2017-Dec-07 05:21N 41°48' W 071°23'0 0.0
2017-Dec-07 04:51N 41°48' W 071°23'0 0.0
2017-Dec-07 04:21N 41°48' W 071°23'0 0.0
2017-Dec-07 03:50N 41°48' W 071°23'0 0.0
2017-Dec-07 03:27N 41°48' W 071°23'0 0.0
2017-Dec-07 02:57N 41°48' W 071°23'0 0.0
2017-Dec-07 02:21N 41°48' W 071°23'0 0.0
2017-Dec-07 01:50N 41°48' W 071°23'1 2.0
2017-Dec-07 01:30N 41°47' W 071°23'2 3.1
2017-Dec-07 01:00N 41°46' W 071°23'5 9.3
2017-Dec-07 00:30N 41°42' W 071°19'  
2017-Dec-02 23:47N 41°01' W 073°53'310.5
2017-Dec-02 23:30N 40°58' W 073°54'510.1
2017-Dec-02 23:00N 40°53' W 073°56'510.1
2017-Dec-02 22:30N 40°48' W 073°59'5 9.5
2017-Dec-02 22:00N 40°44' W 074°01'5 9.3
2017-Dec-02 21:30N 40°39' W 074°03'3 6.6
2017-Dec-02 21:00N 40°39' W 074°07'3 6.1
2017-Dec-02 20:30N 40°39' W 074°11'1 2.5
2017-Dec-02 20:00N 40°38' W 074°12'0 0.0
2017-Dec-02 19:30N 40°38' W 074°12'0 0.0
2017-Dec-02 19:00N 40°38' W 074°12'0 0.0
2017-Dec-02 18:28N 40°38' W 074°12'0 0.0
2017-Dec-02 17:58N 40°38' W 074°12'0 0.0
2017-Dec-02 17:28N 40°38' W 074°12'0 0.0
2017-Dec-02 16:55N 40°38' W 074°12'0 0.0
2017-Dec-02 16:28N 40°38' W 074°12'0 0.0
2017-Dec-02 15:49N 40°38' W 074°12'0 0.0
2017-Dec-02 15:28N 40°38' W 074°12'0 0.0
2017-Dec-02 14:58N 40°38' W 074°12'0 0.0
2017-Dec-02 14:25N 40°38' W 074°12'0 0.0
2017-Dec-02 13:55N 40°38' W 074°12'0 0.0
2017-Dec-02 13:22N 40°38' W 074°12'0 0.0
2017-Dec-02 12:58N 40°38' W 074°12'0 0.0
2017-Dec-02 12:22N 40°38' W 074°12'0 0.0
2017-Dec-02 11:58N 40°38' W 074°12'0 0.0
2017-Dec-02 11:28N 40°38' W 074°12'0 0.0
2017-Dec-02 10:58N 40°38' W 074°12'0 0.0
2017-Dec-02 10:28N 40°38' W 074°12'0 0.0
2017-Dec-02 09:58N 40°38' W 074°12'0 0.0
2017-Dec-02 09:19N 40°38' W 074°12'0 0.0
2017-Dec-02 08:58N 40°38' W 074°12'0 0.0
2017-Dec-02 08:28N 40°38' W 074°12'0 0.0
2017-Dec-02 07:55N 40°38' W 074°12'0 0.0
2017-Dec-02 07:28N 40°38' W 074°12'0 0.0
2017-Dec-02 06:52N 40°38' W 074°12'0 0.0
2017-Dec-02 06:28N 40°38' W 074°12'0 0.0
2017-Dec-02 05:58N 40°38' W 074°12'0 0.0
2017-Dec-02 05:22N 40°38' W 074°12'0 0.0
2017-Dec-02 04:52N 40°38' W 074°12'0 0.0
2017-Dec-02 04:16N 40°38' W 074°12'0 0.0
2017-Dec-02 03:58N 40°38' W 074°12'0 0.0
2017-Dec-02 03:28N 40°38' W 074°12'0 0.0
2017-Dec-02 02:55N 40°38' W 074°12'0 0.0
2017-Dec-02 02:28N 40°38' W 074°12'0 0.0
2017-Dec-02 01:58N 40°38' W 074°12'0 0.0
2017-Dec-02 01:19N 40°38' W 074°12'0 0.0
2017-Dec-02 00:37N 40°38' W 074°12'0 0.0
2017-Dec-02 00:28N 40°38' W 074°12'0 0.0
2017-Dec-01 23:58N 40°38' W 074°12'0 0.0
2017-Dec-01 23:28N 40°38' W 074°12'0 0.0
2017-Dec-01 22:34N 40°38' W 074°12'0 0.0
2017-Dec-01 22:22N 40°38' W 074°12'0 0.0
2017-Dec-01 21:52N 40°38' W 074°12'0 0.0
2017-Dec-01 21:13N 40°38' W 074°12'0 0.0
2017-Dec-01 20:34N 40°38' W 074°12'0 0.0
2017-Dec-01 20:16N 40°38' W 074°12'0 0.0
2017-Dec-01 19:55N 40°38' W 074°12'0 0.0
2017-Dec-01 19:25N 40°38' W 074°12'0 0.0
2017-Dec-01 18:58N 40°38' W 074°12'0 0.0
2017-Dec-01 18:16N 40°38' W 074°12'0 0.0
2017-Dec-01 17:55N 40°38' W 074°12'0 0.0
2017-Dec-01 17:28N 40°38' W 074°12'0 0.0
2017-Dec-01 16:58N 40°38' W 074°12'  

Dump ship's entire track history